sensor_id;sensor_type;location;lat;lon;timestamp;pressure;altitude;pressure_sealevel;temperature;humidity
63773;BME280;49919;53.612;55.898;2022-07-23T00:00:44;98984.22;;;17.28;60.73
63773;BME280;49919;53.612;55.898;2022-07-23T00:02:15;98989.06;;;17.26;60.79
63773;BME280;49919;53.612;55.898;2022-07-23T00:03:45;98996.03;;;17.27;60.74
63773;BME280;49919;53.612;55.898;2022-07-23T00:05:16;98993.34;;;17.27;60.76
63773;BME280;49919;53.612;55.898;2022-07-23T00:06:47;98994.97;;;17.28;60.89
63773;BME280;49919;53.612;55.898;2022-07-23T00:08:17;98994.38;;;17.31;61.11
63773;BME280;49919;53.612;55.898;2022-07-23T00:09:48;99001.13;;;17.28;61.12
63773;BME280;49919;53.612;55.898;2022-07-23T00:11:19;98996.84;;;17.27;61.15
63773;BME280;49919;53.612;55.898;2022-07-23T00:12:50;98996.34;;;17.25;60.89
63773;BME280;49919;53.612;55.898;2022-07-23T00:14:20;99000.69;;;17.21;61.29
63773;BME280;49919;53.612;55.898;2022-07-23T00:15:51;99002.84;;;17.19;61.24
63773;BME280;49919;53.612;55.898;2022-07-23T00:17:22;99002.84;;;17.19;61.41
63773;BME280;49919;53.612;55.898;2022-07-23T00:18:52;99003.66;;;17.20;61.61
63773;BME280;49919;53.612;55.898;2022-07-23T00:20:23;98996.91;;;17.22;61.57
63773;BME280;49919;53.612;55.898;2022-07-23T00:21:54;99000.63;;;17.26;61.69
63773;BME280;49919;53.612;55.898;2022-07-23T00:23:25;98996.56;;;17.29;61.74
63773;BME280;49919;53.612;55.898;2022-07-23T00:24:57;98999.75;;;17.31;61.80
63773;BME280;49919;53.612;55.898;2022-07-23T00:26:28;99001.94;;;17.29;61.91
63773;BME280;49919;53.612;55.898;2022-07-23T00:27:59;99010.50;;;17.31;61.66
63773;BME280;49919;53.612;55.898;2022-07-23T00:29:30;99001.13;;;17.28;61.71
63773;BME280;49919;53.612;55.898;2022-07-23T00:31:01;99012.16;;;17.27;61.65
63773;BME280;49919;53.612;55.898;2022-07-23T00:32:31;99004.91;;;17.27;61.61
63773;BME280;49919;53.612;55.898;2022-07-23T00:34:02;99011.59;;;17.30;61.30
63773;BME280;49919;53.612;55.898;2022-07-23T00:35:34;99007.31;;;17.29;61.32
63773;BME280;49919;53.612;55.898;2022-07-23T00:37:04;99007.31;;;17.29;61.22
63773;BME280;49919;53.612;55.898;2022-07-23T00:38:35;99006.50;;;17.28;61.34
63773;BME280;49919;53.612;55.898;2022-07-23T00:40:06;99005.69;;;17.28;61.26
63773;BME280;49919;53.612;55.898;2022-07-23T00:41:37;99007.59;;;17.27;61.24
63773;BME280;49919;53.612;55.898;2022-07-23T00:43:08;99015.66;;;17.27;61.11
63773;BME280;49919;53.612;55.898;2022-07-23T00:44:39;99012.16;;;17.27;61.23
63773;BME280;49919;53.612;55.898;2022-07-23T00:46:10;99011.88;;;17.28;61.01
63773;BME280;49919;53.612;55.898;2022-07-23T00:47:41;99009.69;;;17.30;61.21
63773;BME280;49919;53.612;55.898;2022-07-23T00:49:11;99025.22;;;17.33;60.72
63773;BME280;49919;53.612;55.898;2022-07-23T00:50:42;99016.44;;;17.28;60.78
63773;BME280;49919;53.612;55.898;2022-07-23T00:52:13;99024.22;;;17.29;60.98
63773;BME280;49919;53.612;55.898;2022-07-23T00:53:44;99022.53;;;17.33;61.03
63773;BME280;49919;53.612;55.898;2022-07-23T00:55:15;99025.53;;;17.32;61.14
63773;BME280;49919;53.612;55.898;2022-07-23T00:56:46;99019.66;;;17.30;60.94
63773;BME280;49919;53.612;55.898;2022-07-23T00:58:17;99016.69;;;17.31;60.89
63773;BME280;49919;53.612;55.898;2022-07-23T00:59:49;99022.53;;;17.33;60.98
63773;BME280;49919;53.612;55.898;2022-07-23T01:01:19;99023.03;;;17.35;61.01
63773;BME280;49919;53.612;55.898;2022-07-23T01:02:50;99024.22;;;17.29;60.89
63773;BME280;49919;53.612;55.898;2022-07-23T01:04:21;99026.91;;;17.29;60.85
63773;BME280;49919;53.612;55.898;2022-07-23T01:05:52;99030.69;;;17.28;61.01
63773;BME280;49919;53.612;55.898;2022-07-23T01:07:23;99026.97;;;17.24;61.18
63773;BME280;49919;53.612;55.898;2022-07-23T01:08:54;99028.34;;;17.22;61.69
63773;BME280;49919;53.612;55.898;2022-07-23T01:10:25;99032.13;;;17.21;61.78
63773;BME280;49919;53.612;55.898;2022-07-23T01:12:02;99033.66;;;17.27;61.55
63773;BME280;49919;53.612;55.898;2022-07-23T01:13:33;99034.69;;;17.31;61.56
63773;BME280;49919;53.612;55.898;2022-07-23T01:15:04;99031.91;;;17.36;61.58
63773;BME280;49919;53.612;55.898;2022-07-23T01:16:35;99042.00;;;17.44;61.76
63773;BME280;49919;53.612;55.898;2022-07-23T01:18:07;99036.00;;;17.52;61.59
63773;BME280;49919;53.612;55.898;2022-07-23T01:19:39;99040.97;;;17.59;61.26
63773;BME280;49919;53.612;55.898;2022-07-23T01:21:11;99032.63;;;17.60;61.31
63773;BME280;49919;53.612;55.898;2022-07-23T01:22:43;99041.59;;;17.74;60.84
63773;BME280;49919;53.612;55.898;2022-07-23T01:24:14;99042.81;;;17.82;60.73
63773;BME280;49919;53.612;55.898;2022-07-23T01:25:53;99042.22;;;17.85;60.69
63773;BME280;49919;53.612;55.898;2022-07-23T01:27:25;99043.63;;;17.83;60.73
63773;BME280;49919;53.612;55.898;2022-07-23T01:29:00;99050.59;;;17.84;60.81
63773;BME280;49919;53.612;55.898;2022-07-23T01:30:31;99053.00;;;17.85;60.75
63773;BME280;49919;53.612;55.898;2022-07-23T01:32:03;99047.84;;;17.89;60.77
63773;BME280;49919;53.612;55.898;2022-07-23T01:33:34;99047.84;;;17.89;60.80
63773;BME280;49919;53.612;55.898;2022-07-23T01:35:05;99049.13;;;17.91;60.68
63773;BME280;49919;53.612;55.898;2022-07-23T01:36:36;99049.72;;;17.88;61.05
63773;BME280;49919;53.612;55.898;2022-07-23T01:38:07;99048.25;;;17.96;61.05
63773;BME280;49919;53.612;55.898;2022-07-23T01:39:39;99043.28;;;18.03;60.97
63773;BME280;49919;53.612;55.898;2022-07-23T01:41:11;99043.44;;;18.11;60.83
63773;BME280;49919;53.612;55.898;2022-07-23T01:42:41;99047.44;;;18.14;60.64
63773;BME280;49919;53.612;55.898;2022-07-23T01:44:14;99051.72;;;18.15;60.68
63773;BME280;49919;53.612;55.898;2022-07-23T01:45:46;99057.09;;;18.15;60.76
63773;BME280;49919;53.612;55.898;2022-07-23T01:47:17;99051.81;;;18.24;60.43
63773;BME280;49919;53.612;55.898;2022-07-23T01:48:49;99047.28;;;18.38;60.41
63773;BME280;49919;53.612;55.898;2022-07-23T01:50:39;99048.38;;;18.50;59.87
63773;BME280;49919;53.612;55.898;2022-07-23T01:52:21;99051.41;;;18.63;59.54
63773;BME280;49919;53.612;55.898;2022-07-23T01:53:54;99051.84;;;18.70;59.35
63773;BME280;49919;53.612;55.898;2022-07-23T01:55:25;99051.53;;;18.71;59.29
63773;BME280;49919;53.612;55.898;2022-07-23T01:56:56;99048.75;;;18.76;59.23
63773;BME280;49919;53.612;55.898;2022-07-23T01:58:27;99044.66;;;18.79;59.21
63773;BME280;49919;53.612;55.898;2022-07-23T01:59:58;99046.75;;;18.82;59.13
63773;BME280;49919;53.612;55.898;2022-07-23T02:01:29;99043.34;;;18.90;58.98
63773;BME280;49919;53.612;55.898;2022-07-23T02:03:00;99037.28;;;18.98;58.65
63773;BME280;49919;53.612;55.898;2022-07-23T02:04:32;99048.56;;;19.00;58.77
63773;BME280;49919;53.612;55.898;2022-07-23T02:06:06;99054.44;;;19.02;58.69
63773;BME280;49919;53.612;55.898;2022-07-23T02:07:38;99050.22;;;19.10;58.47
63773;BME280;49919;53.612;55.898;2022-07-23T02:09:08;99049.03;;;19.16;58.48
63773;BME280;49919;53.612;55.898;2022-07-23T02:10:39;99048.63;;;19.23;58.39
63773;BME280;49919;53.612;55.898;2022-07-23T02:12:10;99051.19;;;19.28;58.14
63773;BME280;49919;53.612;55.898;2022-07-23T02:13:41;99050.00;;;19.34;58.13
63773;BME280;49919;53.612;55.898;2022-07-23T02:15:11;99058.97;;;19.43;58.05
63773;BME280;49919;53.612;55.898;2022-07-23T02:16:43;99058.38;;;19.46;57.75
63773;BME280;49919;53.612;55.898;2022-07-23T02:18:14;99048.69;;;19.45;57.81
63773;BME280;49919;53.612;55.898;2022-07-23T02:19:44;99054.78;;;19.50;57.92
63773;BME280;49919;53.612;55.898;2022-07-23T02:21:15;99057.56;;;19.59;57.66
63773;BME280;49919;53.612;55.898;2022-07-23T02:22:46;99057.81;;;19.71;57.38
63773;BME280;49919;53.612;55.898;2022-07-23T02:24:16;99058.06;;;19.83;57.08
63773;BME280;49919;53.612;55.898;2022-07-23T02:25:47;99056.22;;;19.93;56.65
63773;BME280;49919;53.612;55.898;2022-07-23T02:27:18;99058.00;;;19.97;56.50
63773;BME280;49919;53.612;55.898;2022-07-23T02:28:49;99057.59;;;20.04;56.40
63773;BME280;49919;53.612;55.898;2022-07-23T02:30:21;99050.97;;;20.10;56.00
63773;BME280;49919;53.612;55.898;2022-07-23T02:31:51;99057.81;;;20.16;55.76
63773;BME280;49919;53.612;55.898;2022-07-23T02:33:22;99058.69;;;20.25;55.40
63773;BME280;49919;53.612;55.898;2022-07-23T02:34:53;99051.88;;;20.28;55.13
63773;BME280;49919;53.612;55.898;2022-07-23T02:36:25;99056.66;;;20.31;54.80
63773;BME280;49919;53.612;55.898;2022-07-23T02:37:57;99055.25;;;20.33;54.75
63773;BME280;49919;53.612;55.898;2022-07-23T02:39:27;99060.53;;;20.38;54.63
63773;BME280;49919;53.612;55.898;2022-07-23T02:40:58;99057.50;;;20.40;54.44
63773;BME280;49919;53.612;55.898;2022-07-23T02:42:29;99063.22;;;20.38;54.30
63773;BME280;49919;53.612;55.898;2022-07-23T02:44:00;99054.59;;;20.36;54.29
63773;BME280;49919;53.612;55.898;2022-07-23T02:45:31;99060.81;;;20.37;54.23
63773;BME280;49919;53.612;55.898;2022-07-23T02:47:02;99055.25;;;20.33;54.13
63773;BME280;49919;53.612;55.898;2022-07-23T02:48:33;99051.75;;;20.33;54.17
63773;BME280;49919;53.612;55.898;2022-07-23T02:50:04;99056.03;;;20.34;54.16
63773;BME280;49919;53.612;55.898;2022-07-23T02:51:35;99054.59;;;20.36;54.02
63773;BME280;49919;53.612;55.898;2022-07-23T02:53:09;99054.00;;;20.39;54.07
63773;BME280;49919;53.612;55.898;2022-07-23T02:54:40;99051.19;;;20.44;53.94
63773;BME280;49919;53.612;55.898;2022-07-23T02:56:11;99055.84;;;20.52;53.75
63773;BME280;49919;53.612;55.898;2022-07-23T02:57:41;99054.13;;;20.57;53.69
63773;BME280;49919;53.612;55.898;2022-07-23T02:59:12;99055.06;;;20.61;53.53
63773;BME280;49919;53.612;55.898;2022-07-23T03:00:43;99053.97;;;20.62;53.59
63773;BME280;49919;53.612;55.898;2022-07-23T03:02:14;99053.03;;;20.66;53.53
63773;BME280;49919;53.612;55.898;2022-07-23T03:03:44;99052.59;;;20.73;53.28
63773;BME280;49919;53.612;55.898;2022-07-23T03:05:15;99060.25;;;20.79;53.28
63773;BME280;49919;53.612;55.898;2022-07-23T03:06:46;99059.47;;;20.87;53.13
63773;BME280;49919;53.612;55.898;2022-07-23T03:08:16;99053.31;;;20.96;52.93
63773;BME280;49919;53.612;55.898;2022-07-23T03:09:52;99062.22;;;21.05;52.73
63773;BME280;49919;53.612;55.898;2022-07-23T03:11:23;99058.78;;;21.13;52.54
63773;BME280;49919;53.612;55.898;2022-07-23T03:12:53;99056.44;;;21.20;52.23
63773;BME280;49919;53.612;55.898;2022-07-23T03:14:24;99067.75;;;21.31;52.14
63773;BME280;49919;53.612;55.898;2022-07-23T03:15:55;99066.66;;;21.40;51.90
63773;BME280;49919;53.612;55.898;2022-07-23T03:17:25;99061.25;;;21.49;51.67
63773;BME280;49919;53.612;55.898;2022-07-23T03:18:56;99064.44;;;21.60;51.40
63773;BME280;49919;53.612;55.898;2022-07-23T03:20:27;99065.41;;;21.64;51.28
63773;BME280;49919;53.612;55.898;2022-07-23T03:21:58;99070.63;;;21.69;51.24
63773;BME280;49919;53.612;55.898;2022-07-23T03:23:28;99069.69;;;21.73;51.32
63773;BME280;49919;53.612;55.898;2022-07-23T03:25:01;99063.97;;;21.83;51.08
63773;BME280;49919;53.612;55.898;2022-07-23T03:26:37;99073.66;;;21.93;50.87
63773;BME280;49919;53.612;55.898;2022-07-23T03:28:08;99071.47;;;22.04;50.78
63773;BME280;49919;53.612;55.898;2022-07-23T03:29:39;99074.00;;;22.17;50.51
63773;BME280;49919;53.612;55.898;2022-07-23T03:31:09;99073.81;;;22.31;50.55
63773;BME280;49919;53.612;55.898;2022-07-23T03:32:42;99071.25;;;22.43;50.13
63773;BME280;49919;53.612;55.898;2022-07-23T03:34:12;99081.06;;;22.56;49.70
63773;BME280;49919;53.612;55.898;2022-07-23T03:35:44;99074.38;;;22.63;49.44
63773;BME280;49919;53.612;55.898;2022-07-23T03:37:26;99070.03;;;22.70;49.14
63773;BME280;49919;53.612;55.898;2022-07-23T03:38:56;99073.66;;;22.74;48.87
63773;BME280;49919;53.612;55.898;2022-07-23T03:40:27;99069.69;;;22.80;48.70
63773;BME280;49919;53.612;55.898;2022-07-23T03:41:58;99067.47;;;22.82;48.70
63773;BME280;49919;53.612;55.898;2022-07-23T03:43:28;99071.25;;;22.90;48.33
63773;BME280;49919;53.612;55.898;2022-07-23T03:44:59;99066.59;;;22.99;48.39
63773;BME280;49919;53.612;55.898;2022-07-23T03:46:31;99068.47;;;23.07;48.29
63773;BME280;49919;53.612;55.898;2022-07-23T03:48:01;99075.16;;;23.10;47.75
63773;BME280;49919;53.612;55.898;2022-07-23T03:49:33;99066.38;;;23.13;47.93
63773;BME280;49919;53.612;55.898;2022-07-23T03:51:03;99076.81;;;23.23;47.88
63773;BME280;49919;53.612;55.898;2022-07-23T03:52:34;99068.19;;;23.30;47.53
63773;BME280;49919;53.612;55.898;2022-07-23T03:54:05;99060.44;;;23.40;47.56
63773;BME280;49919;53.612;55.898;2022-07-23T03:55:36;99061.97;;;23.50;47.52
63773;BME280;49919;53.612;55.898;2022-07-23T03:57:07;99064.53;;;23.55;47.26
63773;BME280;49919;53.612;55.898;2022-07-23T03:58:38;99068.44;;;23.66;47.29
63773;BME280;49919;53.612;55.898;2022-07-23T04:00:09;99057.19;;;23.76;46.87
63773;BME280;49919;53.612;55.898;2022-07-23T04:01:44;99062.19;;;23.86;46.74
63773;BME280;49919;53.612;55.898;2022-07-23T04:03:15;99061.00;;;23.96;46.38
63773;BME280;49919;53.612;55.898;2022-07-23T04:04:47;99064.88;;;24.07;46.29
63773;BME280;49919;53.612;55.898;2022-07-23T04:06:18;99061.44;;;24.19;46.09
63773;BME280;49919;53.612;55.898;2022-07-23T04:07:49;99063.97;;;24.24;46.06
63773;BME280;49919;53.612;55.898;2022-07-23T04:09:19;99066.38;;;24.38;45.65
63773;BME280;49919;53.612;55.898;2022-07-23T04:10:50;99059.69;;;24.47;45.02
63773;BME280;49919;53.612;55.898;2022-07-23T04:12:21;99065.59;;;24.49;44.88
63773;BME280;49919;53.612;55.898;2022-07-23T04:13:52;99060.41;;;24.56;44.64
63773;BME280;49919;53.612;55.898;2022-07-23T04:15:23;99052.72;;;24.58;44.46
63773;BME280;49919;53.612;55.898;2022-07-23T04:16:54;99058.59;;;24.60;44.93
63773;BME280;49919;53.612;55.898;2022-07-23T04:18:25;99055.66;;;24.66;44.82
63773;BME280;49919;53.612;55.898;2022-07-23T04:20:02;99053.97;;;24.73;44.85
63773;BME280;49919;53.612;55.898;2022-07-23T04:21:38;99049.22;;;24.82;44.62
63773;BME280;49919;53.612;55.898;2022-07-23T04:23:09;99059.00;;;24.96;44.61
63773;BME280;49919;53.612;55.898;2022-07-23T04:24:40;99053.91;;;25.06;44.15
63773;BME280;49919;53.612;55.898;2022-07-23T04:26:12;99047.06;;;25.12;43.88
63773;BME280;49919;53.612;55.898;2022-07-23T04:27:44;99053.09;;;25.30;43.70
63773;BME280;49919;53.612;55.898;2022-07-23T04:29:14;99044.19;;;25.45;43.70
63773;BME280;49919;53.612;55.898;2022-07-23T04:30:45;99050.06;;;25.59;43.18
63773;BME280;49919;53.612;55.898;2022-07-23T04:32:17;99052.78;;;25.72;42.65
63773;BME280;49919;53.612;55.898;2022-07-23T04:33:48;99059.56;;;25.78;42.45
63773;BME280;49919;53.612;55.898;2022-07-23T04:35:19;99050.00;;;25.84;42.33
63773;BME280;49919;53.612;55.898;2022-07-23T04:36:50;99056.22;;;25.97;42.13
63773;BME280;49919;53.612;55.898;2022-07-23T04:38:20;99057.16;;;26.16;41.53
63773;BME280;49919;53.612;55.898;2022-07-23T04:39:54;99049.69;;;26.29;41.43
63773;BME280;49919;53.612;55.898;2022-07-23T04:41:25;99051.22;;;26.42;41.30
63773;BME280;49919;53.612;55.898;2022-07-23T04:42:56;99049.56;;;26.53;40.31
63773;BME280;49919;53.612;55.898;2022-07-23T04:44:27;99049.75;;;26.60;40.03
63773;BME280;49919;53.612;55.898;2022-07-23T04:45:58;99042.53;;;26.68;40.37
63773;BME280;49919;53.612;55.898;2022-07-23T04:47:29;99047.22;;;26.83;39.85
63773;BME280;49919;53.612;55.898;2022-07-23T04:49:02;99050.88;;;26.91;38.89
63773;BME280;49919;53.612;55.898;2022-07-23T04:50:32;99045.78;;;26.89;38.90
63773;BME280;49919;53.612;55.898;2022-07-23T04:52:03;99048.34;;;26.98;38.76
63773;BME280;49919;53.612;55.898;2022-07-23T04:53:34;99055.56;;;27.06;38.72
63773;BME280;49919;53.612;55.898;2022-07-23T04:55:07;99059.59;;;27.12;38.64
63773;BME280;49919;53.612;55.898;2022-07-23T04:56:38;99050.44;;;27.20;38.69
63773;BME280;49919;53.612;55.898;2022-07-23T04:58:09;99046.06;;;27.35;38.45
63773;BME280;49919;53.612;55.898;2022-07-23T04:59:40;99046.31;;;27.46;38.04
63773;BME280;49919;53.612;55.898;2022-07-23T05:01:12;99045.41;;;27.57;37.87
63773;BME280;49919;53.612;55.898;2022-07-23T05:02:43;99051.66;;;27.58;37.55
63773;BME280;49919;53.612;55.898;2022-07-23T05:04:14;99049.81;;;27.62;38.09
63773;BME280;49919;53.612;55.898;2022-07-23T05:05:45;99063.19;;;27.67;37.67
63773;BME280;49919;53.612;55.898;2022-07-23T05:07:19;99056.78;;;27.79;37.83
63773;BME280;49919;53.612;55.898;2022-07-23T05:08:50;99054.28;;;27.89;37.50
63773;BME280;49919;53.612;55.898;2022-07-23T05:10:21;99047.31;;;27.92;37.06
63773;BME280;49919;53.612;55.898;2022-07-23T05:11:51;99054.72;;;27.91;37.45
63773;BME280;49919;53.612;55.898;2022-07-23T05:13:23;99044.19;;;27.93;37.47
63773;BME280;49919;53.612;55.898;2022-07-23T05:14:58;99054.47;;;28.00;37.37
63773;BME280;49919;53.612;55.898;2022-07-23T05:16:29;99049.22;;;28.11;37.25
63773;BME280;49919;53.612;55.898;2022-07-23T05:18:05;99046.34;;;28.23;36.79
63773;BME280;49919;53.612;55.898;2022-07-23T05:19:36;99047.22;;;28.27;36.20
63773;BME280;49919;53.612;55.898;2022-07-23T05:21:07;99048.34;;;28.26;36.28
63773;BME280;49919;53.612;55.898;2022-07-23T05:22:38;99039.50;;;28.33;36.18
63773;BME280;49919;53.612;55.898;2022-07-23T05:24:09;99047.50;;;28.45;36.21
63773;BME280;49919;53.612;55.898;2022-07-23T05:25:40;99047.38;;;28.60;35.76
63773;BME280;49919;53.612;55.898;2022-07-23T05:27:11;99048.72;;;28.70;35.32
63773;BME280;49919;53.612;55.898;2022-07-23T05:28:42;99050.50;;;28.82;34.97
63773;BME280;49919;53.612;55.898;2022-07-23T05:30:12;99049.72;;;28.81;34.95
63773;BME280;49919;53.612;55.898;2022-07-23T05:31:46;99050.50;;;28.82;34.68
63773;BME280;49919;53.612;55.898;2022-07-23T05:33:20;99045.03;;;28.82;34.75
63773;BME280;49919;53.612;55.898;2022-07-23T05:34:51;99045.88;;;28.86;34.60
63773;BME280;49919;53.612;55.898;2022-07-23T05:36:22;99045.59;;;28.91;34.67
63773;BME280;49919;53.612;55.898;2022-07-23T05:37:57;99042.19;;;28.97;34.19
63773;BME280;49919;53.612;55.898;2022-07-23T05:39:27;99042.97;;;28.98;34.21
63773;BME280;49919;53.612;55.898;2022-07-23T05:40:59;99039.88;;;29.03;33.99
63773;BME280;49919;53.612;55.898;2022-07-23T05:42:30;99044.25;;;29.08;33.45
63773;BME280;49919;53.612;55.898;2022-07-23T05:44:01;99041.59;;;29.11;33.35
63773;BME280;49919;53.612;55.898;2022-07-23T05:45:32;99049.50;;;29.16;33.59
63773;BME280;49919;53.612;55.898;2022-07-23T05:47:03;99046.44;;;29.21;33.55
63773;BME280;49919;53.612;55.898;2022-07-23T05:48:34;99043.28;;;29.19;33.21
63773;BME280;49919;53.612;55.898;2022-07-23T05:50:13;99041.34;;;29.20;33.35
63773;BME280;49919;53.612;55.898;2022-07-23T05:51:58;99045.38;;;29.29;33.26
63773;BME280;49919;53.612;55.898;2022-07-23T05:53:44;99040.31;;;29.31;32.32
63773;BME280;49919;53.612;55.898;2022-07-23T05:55:27;99035.44;;;29.18;32.74
63773;BME280;49919;53.612;55.898;2022-07-23T05:57:00;99039.38;;;29.20;33.04
63773;BME280;49919;53.612;55.898;2022-07-23T05:58:30;99036.78;;;29.31;32.74
63773;BME280;49919;53.612;55.898;2022-07-23T06:00:04;99043.03;;;29.31;32.76
63773;BME280;49919;53.612;55.898;2022-07-23T06:01:44;99040.31;;;29.31;32.51
63773;BME280;49919;53.612;55.898;2022-07-23T06:03:16;99034.03;;;29.31;32.72
63773;BME280;49919;53.612;55.898;2022-07-23T06:04:47;99031.66;;;29.29;32.88
63773;BME280;49919;53.612;55.898;2022-07-23T06:06:26;99035.56;;;29.28;32.84
63773;BME280;49919;53.612;55.898;2022-07-23T06:07:57;99032.50;;;29.33;33.18
63773;BME280;49919;53.612;55.898;2022-07-23T06:09:29;99036.88;;;29.38;33.26
63773;BME280;49919;53.612;55.898;2022-07-23T06:10:59;99037.41;;;29.47;32.68
63773;BME280;49919;53.612;55.898;2022-07-23T06:12:31;99032.03;;;29.54;32.32
63773;BME280;49919;53.612;55.898;2022-07-23T06:14:02;99034.50;;;29.63;32.04
63773;BME280;49919;53.612;55.898;2022-07-23T06:15:46;99036.25;;;29.78;32.20
63773;BME280;49919;53.612;55.898;2022-07-23T06:17:18;99031.34;;;29.94;31.77
63773;BME280;49919;53.612;55.898;2022-07-23T06:18:48;99032.66;;;30.04;31.50
63773;BME280;49919;53.612;55.898;2022-07-23T06:20:19;99032.72;;;30.08;31.38
63773;BME280;49919;53.612;55.898;2022-07-23T06:21:50;99031.59;;;30.16;31.14
63773;BME280;49919;53.612;55.898;2022-07-23T06:23:21;99031.22;;;30.17;30.91
63773;BME280;49919;53.612;55.898;2022-07-23T06:24:52;99030.13;;;30.25;31.34
63773;BME280;49919;53.612;55.898;2022-07-23T06:26:31;99036.53;;;30.40;30.84
63773;BME280;49919;53.612;55.898;2022-07-23T06:28:04;99030.81;;;30.56;30.75
63773;BME280;49919;53.612;55.898;2022-07-23T06:29:34;99026.22;;;30.67;30.36
63773;BME280;49919;53.612;55.898;2022-07-23T06:31:05;99027.84;;;30.72;29.96
63773;BME280;49919;53.612;55.898;2022-07-23T06:32:36;99029.41;;;30.76;29.67
63773;BME280;49919;53.612;55.898;2022-07-23T06:34:07;99019.22;;;30.77;29.80
63773;BME280;49919;53.612;55.898;2022-07-23T06:35:40;99026.72;;;30.80;29.72
63773;BME280;49919;53.612;55.898;2022-07-23T06:37:12;99015.28;;;30.71;29.64
63773;BME280;49919;53.612;55.898;2022-07-23T06:38:42;99015.19;;;30.60;29.93
63773;BME280;49919;53.612;55.898;2022-07-23T06:40:13;99021.13;;;30.65;29.69
63773;BME280;49919;53.612;55.898;2022-07-23T06:41:44;99023.50;;;30.71;29.99
63773;BME280;49919;53.612;55.898;2022-07-23T06:43:15;99013.75;;;30.77;29.83
63773;BME280;49919;53.612;55.898;2022-07-23T06:44:48;99015.38;;;30.85;29.53
63773;BME280;49919;53.612;55.898;2022-07-23T06:46:21;99015.44;;;30.92;29.63
63773;BME280;49919;53.612;55.898;2022-07-23T06:47:53;99017.44;;;30.98;29.37
63773;BME280;49919;53.612;55.898;2022-07-23T06:49:24;99012.41;;;31.08;29.35
63773;BME280;49919;53.612;55.898;2022-07-23T06:50:54;99008.47;;;31.09;29.22
63773;BME280;49919;53.612;55.898;2022-07-23T06:52:28;99008.53;;;31.12;29.12
63773;BME280;49919;53.612;55.898;2022-07-23T06:53:59;99004.25;;;31.15;29.21
63773;BME280;49919;53.612;55.898;2022-07-23T06:55:30;99008.22;;;31.24;29.25
63773;BME280;49919;53.612;55.898;2022-07-23T06:57:01;99003.53;;;31.28;29.15
63773;BME280;49919;53.612;55.898;2022-07-23T06:58:32;99006.34;;;31.39;28.94
63773;BME280;49919;53.612;55.898;2022-07-23T07:00:03;99006.38;;;31.53;28.98
63773;BME280;49919;53.612;55.898;2022-07-23T07:01:35;99008.38;;;31.60;28.88
63773;BME280;49919;53.612;55.898;2022-07-23T07:03:06;99006.47;;;31.67;28.60
63773;BME280;49919;53.612;55.898;2022-07-23T07:04:36;99007.31;;;31.79;28.45
63773;BME280;49919;53.612;55.898;2022-07-23T07:06:07;99012.81;;;31.89;28.04
63773;BME280;49919;53.612;55.898;2022-07-23T07:07:38;99007.34;;;31.96;28.37
63773;BME280;49919;53.612;55.898;2022-07-23T07:09:12;99018.34;;;32.07;27.74
63773;BME280;49919;53.612;55.898;2022-07-23T07:10:42;99004.25;;;32.16;27.02
63773;BME280;49919;53.612;55.898;2022-07-23T07:12:13;99014.50;;;32.29;26.75
63773;BME280;49919;53.612;55.898;2022-07-23T07:13:44;99022.38;;;32.42;26.98
63773;BME280;49919;53.612;55.898;2022-07-23T07:15:14;99009.41;;;32.53;26.90
63773;BME280;49919;53.612;55.898;2022-07-23T07:16:45;99014.13;;;32.52;26.82
63773;BME280;49919;53.612;55.898;2022-07-23T07:18:16;99007.84;;;32.55;26.89
63773;BME280;49919;53.612;55.898;2022-07-23T07:19:46;99002.75;;;32.68;27.09
63773;BME280;49919;53.612;55.898;2022-07-23T07:21:17;99008.25;;;32.68;26.74
63773;BME280;49919;53.612;55.898;2022-07-23T07:22:48;99016.09;;;32.62;26.58
63773;BME280;49919;53.612;55.898;2022-07-23T07:24:19;99012.56;;;32.65;26.53
63773;BME280;49919;53.612;55.898;2022-07-23T07:25:49;99010.59;;;32.80;26.71
63773;BME280;49919;53.612;55.898;2022-07-23T07:27:20;99009.41;;;32.92;26.67
63773;BME280;49919;53.612;55.898;2022-07-23T07:28:51;99011.38;;;33.02;26.59
63773;BME280;49919;53.612;55.898;2022-07-23T07:30:22;99015.66;;;33.17;26.53
63773;BME280;49919;53.612;55.898;2022-07-23T07:31:55;99006.19;;;33.22;26.35
63773;BME280;49919;53.612;55.898;2022-07-23T07:33:26;99008.56;;;33.16;26.30
63773;BME280;49919;53.612;55.898;2022-07-23T07:34:57;99001.88;;;33.28;26.75
63773;BME280;49919;53.612;55.898;2022-07-23T07:36:28;99007.34;;;33.42;26.53
63773;BME280;49919;53.612;55.898;2022-07-23T07:37:59;99008.50;;;33.52;26.30
63773;BME280;49919;53.612;55.898;2022-07-23T07:39:30;99013.53;;;33.71;25.88
63773;BME280;49919;53.612;55.898;2022-07-23T07:41:00;99001.31;;;33.76;26.09
63773;BME280;49919;53.612;55.898;2022-07-23T07:42:31;99005.63;;;33.80;26.08
63773;BME280;49919;53.612;55.898;2022-07-23T07:44:02;99000.44;;;33.96;26.00
63773;BME280;49919;53.612;55.898;2022-07-23T07:45:33;98998.38;;;34.11;25.43
63773;BME280;49919;53.612;55.898;2022-07-23T07:47:04;98999.50;;;34.17;24.96
63773;BME280;49919;53.612;55.898;2022-07-23T07:48:35;99001.03;;;34.29;24.60
63773;BME280;49919;53.612;55.898;2022-07-23T07:50:06;99013.97;;;34.39;24.38
63773;BME280;49919;53.612;55.898;2022-07-23T07:51:38;99002.16;;;34.38;24.60
63773;BME280;49919;53.612;55.898;2022-07-23T07:53:09;99005.69;;;34.39;24.53
63773;BME280;49919;53.612;55.898;2022-07-23T07:54:40;99001.34;;;34.42;24.58
63773;BME280;49919;53.612;55.898;2022-07-23T07:56:10;99002.53;;;34.41;24.57
63773;BME280;49919;53.612;55.898;2022-07-23T07:57:41;98996.63;;;34.38;24.50
63773;BME280;49919;53.612;55.898;2022-07-23T07:59:12;98994.63;;;34.43;24.39